createdAt,value
2023-11-12T00:01:41.494Z,10.25
2023-11-12T00:04:10.346Z,10.50
2023-11-12T00:06:41.827Z,11.45
2023-11-12T00:09:10.617Z,11.02
2023-11-12T00:11:39.406Z,12.02
2023-11-12T00:14:07.570Z,11.77
2023-11-12T00:16:35.579Z,12.23
2023-11-12T00:19:05.111Z,11.52
2023-11-12T00:24:02.911Z,12.10
2023-11-12T00:26:30.902Z,12.40
2023-11-12T00:28:58.761Z,12.48
2023-11-12T00:31:26.625Z,13.02
2023-11-12T00:33:55.428Z,12.98
2023-11-12T00:36:24.022Z,13.00
2023-11-12T00:38:51.866Z,13.47
2023-11-12T00:41:21.647Z,13.75
2023-11-12T00:43:50.297Z,13.77
2023-11-12T00:46:18.288Z,14.00
2023-11-12T00:48:46.199Z,14.40
2023-11-12T00:51:14.007Z,14.45
2023-11-12T00:53:42.916Z,14.63
2023-11-12T00:56:10.784Z,14.63
2023-11-12T00:58:39.958Z,15.00
2023-11-12T01:01:08.054Z,14.68
2023-11-12T01:03:35.900Z,14.65
2023-11-12T01:06:04.506Z,15.43
2023-11-12T01:08:32.504Z,15.47
2023-11-12T01:11:00.874Z,16.10
2023-11-12T01:13:28.852Z,15.73
2023-11-12T01:15:58.251Z,15.45
2023-11-12T01:18:26.790Z,16.05
2023-11-12T01:20:54.956Z,15.63
2023-11-12T01:23:23.038Z,15.55
2023-11-12T01:25:50.904Z,16.75
2023-11-12T01:28:18.732Z,15.32
2023-11-12T01:30:46.704Z,15.57
2023-11-12T01:33:15.933Z,16.63
2023-11-12T01:35:43.862Z,17.35
2023-11-12T01:38:11.921Z,17.02
2023-11-12T01:40:41.115Z,16.48
2023-11-12T01:43:09.153Z,17.00
2023-11-12T01:45:37.198Z,17.02
2023-11-12T01:48:09.174Z,18.05
2023-11-12T01:50:39.276Z,16.85
2023-11-12T01:53:07.298Z,17.42
2023-11-12T01:55:35.599Z,18.23
2023-11-12T01:58:05.397Z,18.98
2023-11-12T02:00:34.292Z,18.15
2023-11-12T02:03:06.489Z,18.45
2023-11-12T02:05:34.610Z,18.90
2023-11-12T02:08:05.143Z,18.73
2023-11-12T02:10:36.652Z,19.13
2023-11-12T02:13:05.502Z,18.77
2023-11-12T02:15:33.778Z,18.90
2023-11-12T02:18:02.015Z,18.90
2023-11-12T02:20:30.048Z,20.58
2023-11-12T02:22:58.270Z,19.90
2023-11-12T02:25:27.493Z,19.65
2023-11-12T02:27:55.324Z,19.60
2023-11-12T02:30:23.162Z,19.55
2023-11-12T02:32:51.168Z,19.60
2023-11-12T02:35:19.137Z,19.63
2023-11-12T02:37:47.117Z,20.13
2023-11-12T02:40:16.107Z,19.40
2023-11-12T02:42:45.666Z,19.33
2023-11-12T02:45:14.392Z,19.02
2023-11-12T02:47:44.314Z,18.65
2023-11-12T02:50:36.666Z,18.48
2023-11-12T02:53:08.238Z,18.05
2023-11-12T02:55:37.254Z,17.63
2023-11-12T02:58:06.960Z,16.88
2023-11-12T03:00:35.125Z,17.35
2023-11-12T03:03:04.139Z,17.42
2023-11-12T03:05:33.424Z,16.77
2023-11-12T03:08:01.494Z,16.88
2023-11-12T03:10:29.500Z,15.35
2023-11-12T03:12:57.373Z,17.02
2023-11-12T03:15:26.758Z,15.60
2023-11-12T03:17:54.741Z,15.18
2023-11-12T03:20:24.433Z,16.83
2023-11-12T03:22:52.321Z,15.90
2023-11-12T03:25:20.113Z,15.63
2023-11-12T03:27:47.987Z,16.38
2023-11-12T03:30:16.078Z,16.48
2023-11-12T03:32:44.415Z,15.88
2023-11-12T03:35:12.852Z,16.58
2023-11-12T03:37:40.694Z,15.63
2023-11-12T03:40:10.407Z,16.92
2023-11-12T03:42:38.325Z,16.88
2023-11-12T03:45:07.267Z,15.35
2023-11-12T03:47:35.155Z,15.93
2023-11-12T03:50:05.089Z,15.98
2023-11-12T03:52:32.864Z,16.35
2023-11-12T03:55:00.693Z,16.75
2023-11-12T03:57:28.620Z,15.15
2023-11-12T03:59:56.714Z,15.63
2023-11-12T04:02:24.584Z,16.05
2023-11-12T04:04:53.493Z,16.10
2023-11-12T04:07:24.782Z,15.65
2023-11-12T04:09:52.644Z,15.75
2023-11-12T04:12:20.644Z,15.88
2023-11-12T04:14:48.502Z,16.17
2023-11-12T04:17:16.342Z,15.82
2023-11-12T04:19:44.767Z,16.05
2023-11-12T04:22:12.786Z,16.25
2023-11-12T04:24:42.031Z,16.85
2023-11-12T04:27:10.223Z,16.33
2023-11-12T04:29:38.236Z,16.63
2023-11-12T04:32:06.306Z,15.55
2023-11-12T04:34:34.088Z,16.48
2023-11-12T04:37:01.913Z,16.90
2023-11-12T04:39:29.721Z,17.02
2023-11-12T04:41:58.899Z,16.52
2023-11-12T04:44:26.740Z,16.80
2023-11-12T04:46:55.041Z,17.58
2023-11-12T04:49:25.399Z,17.05
2023-11-12T04:51:54.777Z,17.85
2023-11-12T04:56:50.791Z,17.25
2023-11-12T04:59:20.010Z,18.27
2023-11-12T05:01:47.862Z,19.13
2023-11-12T05:04:15.734Z,19.80
2023-11-12T05:06:44.080Z,18.10
2023-11-12T05:09:12.296Z,18.63
2023-11-12T05:11:40.253Z,18.33
2023-11-12T05:14:08.838Z,18.98
2023-11-12T05:16:38.022Z,19.00
2023-11-12T05:19:07.768Z,18.67
2023-11-12T05:21:35.680Z,19.50
2023-11-12T05:24:03.733Z,18.45
2023-11-12T05:26:33.097Z,19.40
2023-11-12T05:31:28.754Z,17.48
2023-11-12T05:33:57.938Z,18.55
2023-11-12T05:36:25.835Z,17.88
2023-11-12T05:38:53.939Z,18.55
2023-11-12T05:41:21.898Z,17.55
2023-11-12T05:43:51.575Z,18.08
2023-11-12T05:46:19.645Z,17.10
2023-11-12T05:48:47.572Z,17.58
2023-11-12T05:51:16.909Z,17.27
2023-11-12T05:56:12.716Z,16.48
2023-11-12T05:58:40.722Z,16.23
2023-11-12T06:01:08.502Z,16.52
2023-11-12T06:03:36.446Z,16.85
2023-11-12T06:06:04.529Z,16.15
2023-11-12T06:08:33.897Z,16.00
2023-11-12T06:13:29.513Z,16.17
2023-11-12T06:15:57.552Z,15.68
2023-11-12T06:18:25.430Z,16.67
2023-11-12T06:20:53.380Z,16.80
2023-11-12T06:23:21.238Z,16.42
2023-11-12T06:25:50.443Z,16.30
2023-11-12T06:28:18.598Z,16.50
2023-11-12T06:30:46.426Z,17.23
2023-11-12T06:33:14.571Z,18.10
2023-11-12T06:35:42.549Z,17.08
2023-11-12T06:38:10.350Z,16.88
2023-11-12T06:40:38.176Z,16.52
2023-11-12T06:43:07.293Z,17.20
2023-11-12T06:45:35.346Z,16.73
2023-11-12T06:48:03.260Z,17.33
2023-11-12T06:50:31.115Z,17.15
2023-11-12T06:52:58.932Z,16.15
2023-11-12T06:55:30.184Z,16.42
2023-11-12T06:57:58.007Z,17.83
2023-11-12T07:00:27.141Z,18.25
2023-11-12T07:02:55.646Z,18.58
2023-11-12T07:05:23.601Z,19.05
2023-11-12T07:07:51.414Z,19.42
2023-11-12T07:10:20.233Z,19.98
2023-11-12T07:12:48.081Z,20.33
2023-11-12T07:15:16.271Z,19.85
2023-11-12T07:17:49.127Z,19.77
2023-11-12T07:20:17.002Z,21.20
2023-11-12T07:22:46.330Z,20.48
2023-11-12T07:25:14.120Z,21.77
2023-11-12T07:27:44.330Z,19.60
2023-11-12T07:30:13.353Z,20.30
2023-11-12T07:32:41.237Z,20.73
2023-11-12T07:35:14.167Z,20.00
2023-11-12T07:37:43.080Z,19.60
2023-11-12T07:40:12.775Z,19.73
2023-11-12T07:42:41.270Z,19.67
2023-11-12T07:45:13.885Z,20.50
2023-11-12T07:47:43.614Z,19.05
2023-11-12T07:50:13.129Z,18.85
2023-11-12T07:52:42.703Z,19.42
2023-11-12T07:55:11.128Z,19.00
2023-11-12T07:57:39.007Z,18.63
2023-11-12T08:00:09.039Z,19.23
2023-11-12T08:02:38.025Z,18.70
2023-11-12T08:05:08.928Z,20.08
2023-11-12T08:07:39.002Z,19.92
2023-11-12T08:10:09.900Z,19.55
2023-11-12T08:12:39.301Z,19.70
2023-11-12T08:15:12.009Z,19.50
2023-11-12T08:17:39.916Z,19.27
2023-11-12T08:20:09.594Z,20.23
2023-11-12T08:22:38.900Z,18.92
2023-11-12T08:25:07.444Z,20.33
2023-11-12T08:27:35.832Z,20.13
2023-11-12T08:30:05.025Z,20.13
2023-11-12T08:32:33.017Z,20.70
2023-11-12T08:35:01.176Z,19.98
2023-11-12T08:37:29.105Z,19.60
2023-11-12T08:39:58.369Z,20.60
2023-11-12T08:42:27.809Z,19.40
2023-11-12T08:47:24.133Z,27.92
2023-11-12T08:49:52.218Z,30.17
2023-11-12T08:52:20.122Z,27.02
2023-11-12T08:54:48.175Z,22.98
2023-11-12T08:57:17.430Z,18.95
2023-11-12T08:59:45.393Z,17.95
2023-11-12T09:02:13.777Z,16.45
2023-11-12T09:04:41.609Z,16.27
2023-11-12T09:07:09.988Z,17.80
2023-11-12T09:09:38.323Z,17.60
2023-11-12T09:12:06.936Z,17.48
2023-11-12T09:14:36.690Z,17.10
2023-11-12T09:17:05.180Z,16.83
2023-11-12T09:19:33.034Z,17.23
2023-11-12T09:22:00.865Z,16.50
2023-11-12T09:24:29.066Z,17.90
2023-11-12T09:26:56.944Z,17.58
2023-11-12T09:29:25.507Z,17.15
2023-11-12T09:31:54.672Z,16.67
2023-11-12T09:34:22.494Z,15.93
2023-11-12T09:36:50.428Z,16.17
2023-11-12T09:39:18.909Z,16.70
2023-11-12T09:41:52.691Z,16.63
2023-11-12T09:44:21.123Z,16.42
2023-11-12T09:47:02.330Z,15.90
2023-11-12T09:49:31.251Z,16.55
2023-11-12T09:51:59.426Z,15.30
2023-11-12T09:54:27.980Z,14.80
2023-11-12T09:57:06.361Z,15.23
2023-11-12T09:59:37.613Z,14.80
2023-11-12T10:02:07.928Z,15.52
2023-11-12T10:04:36.356Z,15.65
2023-11-12T10:07:06.111Z,15.88
2023-11-12T10:09:37.977Z,14.57
2023-11-12T10:12:07.121Z,13.52
2023-11-12T10:14:35.905Z,13.10
2023-11-12T10:17:12.097Z,13.52
2023-11-12T10:19:40.220Z,14.18
2023-11-12T10:22:08.779Z,12.55
2023-11-12T10:24:44.578Z,12.77
2023-11-12T10:27:15.300Z,12.60
2023-11-12T10:29:45.568Z,11.65
2023-11-12T10:32:27.588Z,11.73
2023-11-12T10:34:56.665Z,11.02
2023-11-12T10:37:24.814Z,10.93
2023-11-12T10:39:52.698Z,10.48
2023-11-12T10:42:24.034Z,12.18
2023-11-12T10:44:55.736Z,11.55
2023-11-12T10:47:27.770Z,13.35
2023-11-12T10:49:56.852Z,13.75
2023-11-12T10:52:25.201Z,13.32
2023-11-12T10:54:53.426Z,11.75
2023-11-12T10:57:22.744Z,11.48
2023-11-12T11:02:20.197Z,10.10
2023-11-12T11:07:17.969Z,11.40
2023-11-12T11:09:46.450Z,10.50
2023-11-12T11:12:15.573Z,11.40
2023-11-12T11:14:43.457Z,10.45
2023-11-12T11:17:38.505Z,9.70
2023-11-12T11:20:12.773Z,11.77
2023-11-12T11:22:40.868Z,22.83
2023-11-12T11:25:26.003Z,11.05
2023-11-12T11:28:19.018Z,11.95
2023-11-12T11:31:10.681Z,8.50
2023-11-12T11:33:48.311Z,10.38
2023-11-12T11:36:18.670Z,8.95
2023-11-12T11:39:14.093Z,8.73
2023-11-12T11:42:22.044Z,8.55
2023-11-12T11:44:50.649Z,9.48
2023-11-12T11:47:21.143Z,8.82
2023-11-12T11:49:49.886Z,9.18
2023-11-12T11:52:23.241Z,8.40
2023-11-12T11:54:58.535Z,7.75
2023-11-12T11:57:29.132Z,8.45
2023-11-12T11:59:58.003Z,7.72
2023-11-12T12:02:26.668Z,7.70
2023-11-12T12:04:56.282Z,7.47
2023-11-12T12:07:25.262Z,7.05
2023-11-12T12:09:57.624Z,6.80
2023-11-12T12:12:29.040Z,6.45
2023-11-12T12:14:56.953Z,7.10
2023-11-12T12:17:25.351Z,6.05
2023-11-12T12:19:53.617Z,5.40
2023-11-12T12:22:25.910Z,5.72
2023-11-12T12:24:57.051Z,5.13
2023-11-12T12:27:25.416Z,5.30
2023-11-12T12:29:55.897Z,5.70
2023-11-12T12:32:25.118Z,5.18
2023-11-12T12:34:57.485Z,4.93
2023-11-12T12:37:26.846Z,5.00
2023-11-12T12:40:02.017Z,9.65
2023-11-12T12:42:30.392Z,6.55
2023-11-12T12:44:59.863Z,5.93
2023-11-12T12:47:34.536Z,13.38
2023-11-12T12:50:17.374Z,6.53
2023-11-12T12:52:47.312Z,4.35
2023-11-12T12:55:18.005Z,5.10
2023-11-12T12:57:50.664Z,4.93
2023-11-12T13:00:23.141Z,4.53
2023-11-12T13:02:52.952Z,4.05
2023-11-12T13:05:22.863Z,4.60
2023-11-12T13:07:52.880Z,4.82
2023-11-12T13:10:23.343Z,4.00
2023-11-12T13:12:52.681Z,3.80
2023-11-12T13:15:22.736Z,3.80
2023-11-12T13:17:51.355Z,4.00
2023-11-12T13:20:22.520Z,4.13
2023-11-12T13:22:51.735Z,4.40
2023-11-12T13:25:19.810Z,4.25
2023-11-12T13:27:50.450Z,4.22
2023-11-12T13:30:18.538Z,4.20
2023-11-12T13:32:50.514Z,4.10
2023-11-12T13:35:18.973Z,4.22
2023-11-12T13:37:47.265Z,4.25
2023-11-12T13:40:16.295Z,4.40
2023-11-12T13:42:45.104Z,4.80
2023-11-12T13:45:14.876Z,5.20
2023-11-12T13:47:43.051Z,4.80
2023-11-12T13:50:15.173Z,5.30
2023-11-12T13:52:44.937Z,5.65
2023-11-12T13:55:19.576Z,9.13
2023-11-12T13:57:48.552Z,6.00
2023-11-12T14:00:18.614Z,6.22
2023-11-12T14:02:46.582Z,6.40
2023-11-12T14:05:17.842Z,6.25
2023-11-12T14:07:45.744Z,6.07
2023-11-12T14:10:15.680Z,5.82
2023-11-12T14:12:45.592Z,6.70
2023-11-12T14:15:19.034Z,6.60
2023-11-12T14:17:47.492Z,6.03
2023-11-12T14:20:23.556Z,6.20
2023-11-12T14:22:51.795Z,6.63
2023-11-12T14:25:21.194Z,7.45
2023-11-12T14:30:20.034Z,6.93
2023-11-12T14:32:49.137Z,8.20
2023-11-12T14:35:18.888Z,7.03
2023-11-12T14:37:48.478Z,7.65
2023-11-12T14:40:17.575Z,7.70
2023-11-12T14:42:46.515Z,7.35
2023-11-12T14:45:24.973Z,7.55
2023-11-12T14:47:56.936Z,6.97
2023-11-12T14:50:26.248Z,6.88
2023-11-12T14:52:55.180Z,7.03
2023-11-12T14:55:25.902Z,7.25
2023-11-12T14:57:56.241Z,7.38
2023-11-12T15:00:29.814Z,7.32
2023-11-12T15:02:58.528Z,7.35
2023-11-12T15:05:28.106Z,7.90
2023-11-12T15:07:56.239Z,8.57
2023-11-12T15:10:24.269Z,8.75
2023-11-12T15:12:52.902Z,8.75
2023-11-12T15:15:22.375Z,10.13
2023-11-12T15:17:52.658Z,10.52
2023-11-12T15:20:20.595Z,11.00
2023-11-12T15:22:51.174Z,10.75
2023-11-12T15:25:19.851Z,11.15
2023-11-12T15:27:49.575Z,11.37
2023-11-12T15:30:18.388Z,10.68
2023-11-12T15:32:47.045Z,11.35
2023-11-12T15:35:16.485Z,10.47
2023-11-12T15:37:46.363Z,9.95
2023-11-12T15:40:20.865Z,9.82
2023-11-12T15:42:51.202Z,10.38
2023-11-12T15:45:20.403Z,9.95
2023-11-12T15:47:49.306Z,9.75
2023-11-12T15:50:18.705Z,9.60
2023-11-12T15:52:47.173Z,8.55
2023-11-12T15:55:18.415Z,8.90
2023-11-12T15:57:46.498Z,11.60
2023-11-12T16:00:15.944Z,10.45
2023-11-12T16:02:45.433Z,10.63
2023-11-12T16:07:42.632Z,14.37
2023-11-12T16:10:13.380Z,14.60
2023-11-12T16:12:43.061Z,14.45
2023-11-12T16:15:14.405Z,15.55
2023-11-12T16:17:43.233Z,15.48
2023-11-12T16:20:13.595Z,15.25
2023-11-12T16:22:42.181Z,15.57
2023-11-12T16:25:11.097Z,14.18
2023-11-12T16:27:39.189Z,13.07
2023-11-12T16:30:09.846Z,11.20
2023-11-12T16:32:38.128Z,9.40
2023-11-12T16:35:06.790Z,9.15
2023-11-12T16:37:34.639Z,10.38
2023-11-12T16:40:04.341Z,9.95
2023-11-12T16:42:32.308Z,10.48
2023-11-12T16:45:00.235Z,10.23
2023-11-12T16:47:29.804Z,11.65
2023-11-12T16:49:58.256Z,12.45
2023-11-12T16:52:26.087Z,13.73
2023-11-12T16:54:54.805Z,11.10
2023-11-12T16:57:22.808Z,11.63
2023-11-12T16:59:51.504Z,12.02
2023-11-12T17:02:21.150Z,12.32
2023-11-12T17:04:50.662Z,13.65
2023-11-12T17:07:18.664Z,16.02
2023-11-12T17:09:46.966Z,17.40
2023-11-12T17:12:15.303Z,19.23
2023-11-12T17:14:43.847Z,19.27
2023-11-12T17:17:12.448Z,18.63
2023-11-12T17:19:40.822Z,20.70
2023-11-12T17:22:10.589Z,22.52
2023-11-12T17:24:38.486Z,22.88
2023-11-12T17:27:07.751Z,23.20
2023-11-12T17:29:36.209Z,23.63
2023-11-12T17:32:04.720Z,23.53
2023-11-12T17:34:32.658Z,24.23
2023-11-12T17:37:00.862Z,24.20
2023-11-12T17:39:30.041Z,24.60
2023-11-12T17:41:59.006Z,24.45
2023-11-12T17:44:27.037Z,24.90
2023-11-12T17:46:58.359Z,26.38
2023-11-12T17:49:26.364Z,28.20
2023-11-12T17:51:54.226Z,26.92
2023-11-12T17:54:22.426Z,26.38
2023-11-12T17:56:51.978Z,28.45
2023-11-12T17:59:19.811Z,28.40
2023-11-12T18:01:49.558Z,31.23
2023-11-12T18:04:18.783Z,32.20
2023-11-12T18:06:48.720Z,32.05
2023-11-12T18:09:19.008Z,32.38
2023-11-12T18:11:46.894Z,32.28
2023-11-12T18:14:16.553Z,33.85
2023-11-12T18:16:45.767Z,34.47
2023-11-12T18:19:14.613Z,32.47
2023-11-12T18:21:43.425Z,30.17
2023-11-12T18:24:12.411Z,29.10
2023-11-12T18:26:40.749Z,28.23
2023-11-12T18:29:08.960Z,27.05
2023-11-12T18:31:39.145Z,24.95
2023-11-12T18:34:09.560Z,24.65
2023-11-12T18:36:37.580Z,21.50
2023-11-12T18:39:06.883Z,21.52
2023-11-12T18:41:38.077Z,20.77
2023-11-12T18:44:07.188Z,20.58
2023-11-12T18:46:35.886Z,25.40
2023-11-12T18:49:05.349Z,28.02
2023-11-12T18:51:33.244Z,25.00
2023-11-12T18:54:01.158Z,26.73
2023-11-12T18:56:29.151Z,28.52
2023-11-12T18:58:57.808Z,26.17
2023-11-12T19:01:25.840Z,26.58
2023-11-12T19:03:53.933Z,26.67
2023-11-12T19:06:23.291Z,25.52
2023-11-12T19:08:51.139Z,24.88
2023-11-12T19:11:20.397Z,25.92
2023-11-12T19:13:48.253Z,23.17
2023-11-12T19:16:16.998Z,23.25
2023-11-12T19:18:45.138Z,22.00
2023-11-12T19:21:13.032Z,21.77
2023-11-12T19:23:42.463Z,19.25
2023-11-12T19:28:38.264Z,17.55
2023-11-12T19:31:06.386Z,18.80
2023-11-12T19:33:34.249Z,17.60
2023-11-12T19:36:02.126Z,17.38
2023-11-12T19:38:30.332Z,17.50
2023-11-12T19:41:00.084Z,16.70
2023-11-12T19:43:28.175Z,16.70
2023-11-12T19:45:56.029Z,16.52
2023-11-12T19:48:23.861Z,15.50
2023-11-12T19:50:51.808Z,15.52
2023-11-12T19:53:21.648Z,17.15
2023-11-12T19:55:50.473Z,18.48
2023-11-12T19:58:19.799Z,18.40
2023-11-12T20:03:15.596Z,16.77
2023-11-12T20:05:43.440Z,18.60
2023-11-12T20:08:11.474Z,17.83
2023-11-12T20:10:40.476Z,16.73
2023-11-12T20:13:08.340Z,16.08
2023-11-12T20:15:37.822Z,16.90
2023-11-12T20:18:10.121Z,17.15
2023-11-12T20:20:40.160Z,19.02
2023-11-12T20:23:08.953Z,17.73
2023-11-12T20:25:37.397Z,17.88
2023-11-12T20:28:12.194Z,16.45
2023-11-12T20:30:44.873Z,16.75
2023-11-12T20:33:14.395Z,16.55
2023-11-12T20:35:48.080Z,16.85
2023-11-12T20:38:16.539Z,14.98
2023-11-12T20:40:44.661Z,15.02
2023-11-12T20:43:12.602Z,14.18
2023-11-12T20:45:42.808Z,12.90
2023-11-12T20:48:14.073Z,12.60
2023-11-12T20:50:42.179Z,12.35
2023-11-12T20:53:10.665Z,12.15
2023-11-12T20:55:40.290Z,12.50
2023-11-12T20:58:08.382Z,12.30
2023-11-12T21:00:36.416Z,11.35
2023-11-12T21:03:06.024Z,11.75
2023-11-12T21:05:34.191Z,11.68
2023-11-12T21:08:02.320Z,10.85
2023-11-12T21:10:33.761Z,11.77
2023-11-12T21:13:01.731Z,11.48
2023-11-12T21:15:30.242Z,11.48
2023-11-12T21:17:58.619Z,12.67
2023-11-12T21:20:27.974Z,11.50
2023-11-12T21:25:23.497Z,11.00
2023-11-12T21:27:51.473Z,12.52
2023-11-12T21:30:26.863Z,11.45
2023-11-12T21:32:58.477Z,11.57
2023-11-12T21:35:28.177Z,12.35
2023-11-12T21:37:58.490Z,11.63
2023-11-12T21:40:26.486Z,11.00
2023-11-12T21:42:54.335Z,10.95
2023-11-12T21:45:28.269Z,11.05
2023-11-12T21:47:56.381Z,10.68
2023-11-12T21:50:25.272Z,11.00
2023-11-12T21:52:57.826Z,11.63
2023-11-12T21:55:27.017Z,10.85
2023-11-12T21:57:55.605Z,11.23
2023-11-12T22:00:27.314Z,11.10
2023-11-12T22:02:55.425Z,11.45
2023-11-12T22:05:25.583Z,11.32
2023-11-12T22:07:54.975Z,12.43
2023-11-12T22:12:52.155Z,10.93
2023-11-12T22:15:20.308Z,11.90
2023-11-12T22:17:49.746Z,11.20
2023-11-12T22:20:18.534Z,11.65
2023-11-12T22:22:47.745Z,12.27
2023-11-12T22:25:17.481Z,12.60
2023-11-12T22:27:47.627Z,12.63
2023-11-12T22:30:16.889Z,13.48
2023-11-12T22:32:45.599Z,12.90
2023-11-12T22:35:13.611Z,12.63
2023-11-12T22:37:41.952Z,12.80
2023-11-12T22:40:10.584Z,12.00
2023-11-12T22:42:40.063Z,12.75
2023-11-12T22:47:39.158Z,10.98
2023-11-12T22:50:08.961Z,12.25
2023-11-12T22:52:37.429Z,11.32
2023-11-12T22:55:07.246Z,11.68
2023-11-12T22:57:36.237Z,11.00
2023-11-12T23:00:16.193Z,11.00
2023-11-12T23:02:45.019Z,11.27
2023-11-12T23:05:14.052Z,10.55
2023-11-12T23:07:43.191Z,11.43
2023-11-12T23:10:12.419Z,10.50
2023-11-12T23:12:40.397Z,10.45
2023-11-12T23:15:10.411Z,10.38
2023-11-12T23:17:38.517Z,9.77
2023-11-12T23:20:10.338Z,9.55
2023-11-12T23:22:38.596Z,10.05
2023-11-12T23:25:07.444Z,10.52
2023-11-12T23:27:35.311Z,10.13
2023-11-12T23:30:04.403Z,9.82
2023-11-12T23:32:33.637Z,9.20
2023-11-12T23:35:01.462Z,10.20
2023-11-12T23:37:29.606Z,10.15
2023-11-12T23:39:57.743Z,9.38
2023-11-12T23:42:25.599Z,9.68
2023-11-12T23:44:53.938Z,10.02
2023-11-12T23:47:21.989Z,10.23
2023-11-12T23:49:51.283Z,9.68
2023-11-12T23:52:20.013Z,9.25
2023-11-12T23:54:48.805Z,10.00
2023-11-12T23:57:16.735Z,9.65
2023-11-12T23:59:45.698Z,9.75
